Time;durP1;ratioP1;P1;durP2;ratioP2;P2;SDS_P1;SDS_P2;PMS_P1;PMS_P2;Temp;Humidity;BMP_temperature;BMP_pressure;BME280_temperature;BME280_humidity;BME280_pressure;Samples;Min_cycle;Max_cycle;Signal;HPM_P1;HPM_P2
2022/07/02 00:01:19;;;;;;;10.10;5.22;;;12.80;99.70;;;;;;5032446;28;20378;-67
2022/07/02 00:03:51;;;;;;;10.73;5.97;;;12.90;99.80;;;;;;5041015;28;20033;-69
2022/07/02 00:06:21;;;;;;;9.82;5.47;;;12.90;99.80;;;;;;5044136;28;20025;-68
2022/07/02 00:08:48;;;;;;;11.02;5.72;;;12.90;99.80;;;;;;5028976;28;20079;-69
2022/07/02 00:11:17;;;;;;;9.32;6.35;;;12.90;99.80;;;;;;5049501;28;20047;-68
2022/07/02 00:13:44;;;;;;;13.52;7.15;;;12.90;99.80;;;;;;5039875;28;20037;-68
2022/07/02 00:16:12;;;;;;;12.23;7.68;;;12.90;99.80;;;;;;5034346;28;20033;-68
2022/07/02 00:18:40;;;;;;;11.35;7.57;;;12.90;99.80;;;;;;5037426;28;20025;-68
2022/07/02 00:21:08;;;;;;;12.15;7.72;;;12.90;99.90;;;;;;5036169;28;20084;-68
2022/07/02 00:23:35;;;;;;;12.82;8.70;;;13.00;99.90;;;;;;5036472;28;20040;-68
2022/07/02 00:26:09;;;;;;;11.88;8.40;;;13.00;99.90;;;;;;5035111;28;20045;-68
2022/07/02 00:28:45;;;;;;;16.52;9.07;;;13.00;99.90;;;;;;5039644;28;20116;-68
2022/07/02 00:31:13;;;;;;;15.85;9.15;;;13.00;99.90;;;;;;5041110;28;20032;-65
2022/07/02 00:33:43;;;;;;;18.77;10.50;;;13.00;99.90;;;;;;5051515;28;20155;-66
2022/07/02 00:36:21;;;;;;;18.55;10.98;;;13.10;99.90;;;;;;5036465;28;20028;-67
2022/07/02 00:38:50;;;;;;;26.58;15.18;;;13.10;99.90;;;;;;5042628;28;20087;-68
2022/07/02 00:41:21;;;;;;;23.13;14.07;;;13.20;99.90;;;;;;5040997;28;20028;-68
2022/07/02 00:43:50;;;;;;;20.67;11.88;;;13.30;99.90;;;;;;5047304;28;20032;-66
2022/07/02 00:46:18;;;;;;;20.95;12.25;;;13.40;99.90;;;;;;5041842;28;20473;-66
2022/07/02 00:48:45;;;;;;;16.85;9.75;;;13.60;99.90;;;;;;5037149;28;20047;-62
2022/07/02 00:51:13;;;;;;;12.82;8.52;;;13.60;99.90;;;;;;5040568;28;20021;-65
2022/07/02 00:53:40;;;;;;;15.18;9.90;;;13.70;99.90;;;;;;5048183;28;20052;-64
2022/07/02 00:56:07;;;;;;;17.90;9.48;;;13.70;99.90;;;;;;5042484;28;20051;-65
2022/07/02 00:58:34;;;;;;;12.77;6.93;;;13.80;99.90;;;;;;5048177;28;20028;-66
2022/07/02 01:01:02;;;;;;;15.48;8.32;;;13.80;99.90;;;;;;5033606;28;20585;-65
2022/07/02 01:03:30;;;;;;;13.52;7.15;;;13.80;99.90;;;;;;5045031;28;20037;-66
2022/07/02 01:05:58;;;;;;;7.90;5.35;;;13.80;99.90;;;;;;5047435;28;20028;-66
2022/07/02 01:11:13;;;;;;;7.68;4.00;;;14.00;99.90;;;;;;5042801;28;20040;-66
2022/07/02 01:13:41;;;;;;;10.75;4.38;;;14.10;99.90;;;;;;5047475;28;20032;-65
2022/07/02 01:16:08;;;;;;;13.73;5.10;;;14.20;99.90;;;;;;5040125;28;20474;-65
2022/07/02 01:18:37;;;;;;;9.82;5.15;;;14.30;99.90;;;;;;5032132;28;20033;-65
2022/07/02 01:21:05;;;;;;;11.18;5.45;;;14.30;99.90;;;;;;5041711;28;20018;-66
2022/07/02 01:23:32;;;;;;;14.10;7.43;;;14.40;99.90;;;;;;5061356;28;20041;-66
2022/07/02 01:26:00;;;;;;;12.52;6.75;;;14.40;99.90;;;;;;5056544;28;20031;-65
2022/07/02 01:28:27;;;;;;;9.82;5.55;;;14.50;99.90;;;;;;5059425;28;20027;-68
2022/07/02 01:30:55;;;;;;;10.43;5.40;;;14.50;99.70;;;;;;5045829;28;20021;-68
2022/07/02 01:33:22;;;;;;;7.07;4.93;;;14.50;99.80;;;;;;5042206;28;20053;-67
2022/07/02 01:35:49;;;;;;;9.07;4.30;;;14.60;99.80;;;;;;5034445;28;20025;-64
2022/07/02 01:38:16;;;;;;;7.38;4.43;;;14.70;99.70;;;;;;5034439;28;20025;-64
2022/07/02 01:40:44;;;;;;;9.77;4.10;;;14.70;99.70;;;;;;5035147;28;20442;-68
2022/07/02 01:43:11;;;;;;;8.40;3.70;;;14.80;99.50;;;;;;5038326;28;20034;-69
2022/07/02 01:45:38;;;;;;;10.00;3.95;;;14.90;99.70;;;;;;5047560;28;20474;-69
2022/07/02 01:48:06;;;;;;;6.85;2.40;;;15.00;99.50;;;;;;5042464;28;20489;-66
2022/07/02 01:50:36;;;;;;;6.13;3.15;;;14.90;98.40;;;;;;5048476;28;20033;-65
2022/07/02 01:53:04;;;;;;;11.25;5.07;;;14.90;99.10;;;;;;5043732;28;20107;-65
2022/07/02 01:55:31;;;;;;;7.78;4.07;;;15.00;98.90;;;;;;5039756;28;20024;-68
2022/07/02 01:57:58;;;;;;;8.05;3.72;;;15.00;98.30;;;;;;5045196;28;20039;-69
2022/07/02 02:00:26;;;;;;;8.45;4.00;;;15.10;98.70;;;;;;5047816;28;20032;-68
2022/07/02 02:02:53;;;;;;;5.63;2.17;;;15.00;98.10;;;;;;5041389;28;20155;-67
2022/07/02 02:05:20;;;;;;;5.05;2.47;;;15.00;98.60;;;;;;5045487;28;20735;-69
2022/07/02 02:07:47;;;;;;;5.47;3.40;;;15.20;98.40;;;;;;5043862;28;20037;-69
2022/07/02 02:10:15;;;;;;;5.00;3.15;;;15.20;98.60;;;;;;5049806;28;20540;-69
2022/07/02 02:12:42;;;;;;;5.57;3.03;;;15.20;98.30;;;;;;5040119;28;20510;-69
2022/07/02 02:15:10;;;;;;;5.18;3.05;;;15.20;98.40;;;;;;5061663;28;20477;-69
2022/07/02 02:17:37;;;;;;;4.13;1.30;;;15.20;98.10;;;;;;5042743;28;20068;-69
2022/07/02 02:20:05;;;;;;;3.65;0.90;;;15.20;97.70;;;;;;5035710;28;20108;-69
2022/07/02 02:22:32;;;;;;;1.35;0.88;;;15.20;97.90;;;;;;5044246;28;20531;-67
2022/07/02 02:25:00;;;;;;;2.90;1.17;;;15.30;98.00;;;;;;5029992;28;20112;-66
2022/07/02 02:27:27;;;;;;;2.50;1.30;;;15.40;97.60;;;;;;5039604;28;20424;-67
2022/07/02 02:29:54;;;;;;;2.08;1.10;;;15.40;98.00;;;;;;5027398;28;20021;-64
2022/07/02 02:32:21;;;;;;;3.17;1.10;;;15.60;97.60;;;;;;5027130;28;20030;-65
2022/07/02 02:34:48;;;;;;;2.35;1.30;;;15.70;97.50;;;;;;5044323;28;20025;-64
2022/07/02 02:37:16;;;;;;;2.58;1.58;;;15.70;97.30;;;;;;5035483;28;20127;-64
2022/07/02 02:39:43;;;;;;;2.67;1.33;;;15.80;96.90;;;;;;5027041;28;20021;-66
2022/07/02 02:42:10;;;;;;;3.53;1.30;;;15.70;96.30;;;;;;5040233;28;20024;-64
2022/07/02 02:44:37;;;;;;;1.92;1.10;;;15.70;96.30;;;;;;5040968;28;20100;-65
2022/07/02 02:47:05;;;;;;;1.40;0.88;;;15.60;96.60;;;;;;5031181;28;20099;-64
2022/07/02 02:49:32;;;;;;;4.40;1.60;;;15.60;96.50;;;;;;5036615;28;20131;-64
2022/07/02 02:51:59;;;;;;;2.08;1.00;;;15.50;97.00;;;;;;5043375;28;20114;-65
2022/07/02 02:54:26;;;;;;;2.55;1.27;;;15.50;96.70;;;;;;5038768;28;20017;-65
2022/07/02 02:56:53;;;;;;;4.10;1.40;;;15.40;97.10;;;;;;5039883;28;20487;-64
2022/07/02 02:59:21;;;;;;;2.97;1.70;;;15.40;97.30;;;;;;5042041;28;20025;-64
2022/07/02 03:01:48;;;;;;;3.58;2.00;;;15.40;97.80;;;;;;5034805;28;20044;-64
2022/07/02 03:04:15;;;;;;;6.38;4.53;;;15.50;97.80;;;;;;5030075;28;20375;-64
2022/07/02 03:06:42;;;;;;;5.03;4.07;;;15.50;97.60;;;;;;5039261;28;20585;-63
2022/07/02 03:09:09;;;;;;;10.70;9.13;;;15.50;97.70;;;;;;5031678;28;20561;-64
2022/07/02 03:11:37;;;;;;;9.50;5.95;;;15.50;98.20;;;;;;5030045;28;20082;-64
2022/07/02 03:14:04;;;;;;;6.97;5.47;;;15.50;98.00;;;;;;5030879;28;20061;-64
2022/07/02 03:16:31;;;;;;;3.83;2.97;;;15.50;98.10;;;;;;5044484;28;20048;-64
2022/07/02 03:18:58;;;;;;;9.68;6.72;;;15.50;98.00;;;;;;5027709;28;20056;-64
2022/07/02 03:21:25;;;;;;;9.20;7.97;;;15.40;98.00;;;;;;5045000;28;20032;-64
2022/07/02 03:23:53;;;;;;;14.88;13.35;;;15.40;98.00;;;;;;5045833;28;20497;-64
2022/07/02 03:26:20;;;;;;;14.70;12.30;;;15.40;98.10;;;;;;5046120;28;20029;-64
2022/07/02 03:28:47;;;;;;;11.38;9.20;;;15.40;98.10;;;;;;5039209;28;20120;-64
2022/07/02 03:31:14;;;;;;;12.25;9.90;;;15.40;98.20;;;;;;5035242;28;20127;-64
2022/07/02 03:33:41;;;;;;;13.05;8.98;;;15.40;98.20;;;;;;5046665;28;20201;-64
2022/07/02 03:36:11;;;;;;;8.90;7.38;;;15.40;98.20;;;;;;5045271;28;20111;-64
2022/07/02 03:38:41;;;;;;;6.30;4.55;;;15.40;98.20;;;;;;5045340;28;20033;-64
2022/07/02 03:41:09;;;;;;;4.90;3.40;;;15.30;97.90;;;;;;5046430;28;20020;-64
2022/07/02 03:43:36;;;;;;;3.38;2.33;;;15.30;98.10;;;;;;5046448;28;20036;-63
2022/07/02 03:46:03;;;;;;;6.72;1.95;;;15.20;98.20;;;;;;5044930;28;20395;-64
2022/07/02 03:48:31;;;;;;;2.85;1.42;;;15.20;98.40;;;;;;5046162;28;20029;-64
2022/07/02 03:50:58;;;;;;;3.40;1.05;;;15.20;98.10;;;;;;5044780;28;20017;-64
2022/07/02 03:53:29;;;;;;;4.13;0.93;;;15.10;97.80;;;;;;5045723;28;20021;-64
2022/07/02 03:55:56;;;;;;;1.58;1.20;;;15.00;97.90;;;;;;5045868;28;20257;-64
2022/07/02 03:58:23;;;;;;;5.13;0.90;;;14.90;97.80;;;;;;5045908;28;20025;-63
2022/07/02 04:00:50;;;;;;;2.58;0.98;;;14.80;98.10;;;;;;5046213;28;20025;-64
2022/07/02 04:03:18;;;;;;;2.97;0.85;;;14.80;98.20;;;;;;5044516;28;20032;-64
2022/07/02 04:05:45;;;;;;;7.53;2.13;;;14.70;98.00;;;;;;5044085;28;20030;-64
2022/07/02 04:08:12;;;;;;;7.13;3.85;;;14.60;98.20;;;;;;5047299;28;20013;-64
2022/07/02 04:10:39;;;;;;;5.28;2.47;;;14.50;98.40;;;;;;5039421;28;20817;-64
2022/07/02 04:13:08;;;;;;;9.98;5.72;;;14.60;98.80;;;;;;5032742;28;20033;-63
2022/07/02 04:15:35;;;;;;;7.45;4.40;;;14.50;98.90;;;;;;5033109;28;20021;-63
2022/07/02 04:18:03;;;;;;;7.60;2.35;;;14.50;99.10;;;;;;5029317;28;20137;-63
2022/07/02 04:20:32;;;;;;;3.00;1.02;;;14.40;99.10;;;;;;5036558;28;20031;-63
2022/07/02 04:22:59;;;;;;;3.78;0.90;;;14.40;99.20;;;;;;5034201;28;20060;-63
2022/07/02 04:25:26;;;;;;;6.45;1.10;;;14.40;99.10;;;;;;5049615;28;20485;-62
2022/07/02 04:27:54;;;;;;;5.45;2.70;;;14.40;99.30;;;;;;5036219;28;20033;-68
2022/07/02 04:30:21;;;;;;;9.10;3.45;;;14.40;99.50;;;;;;5033813;28;20049;-67
2022/07/02 04:32:48;;;;;;;7.70;1.75;;;14.30;99.50;;;;;;5031510;28;20040;-66
2022/07/02 04:35:17;;;;;;;8.88;1.92;;;14.30;99.60;;;;;;5036047;28;20029;-66
2022/07/02 04:37:44;;;;;;;8.75;2.67;;;14.20;99.70;;;;;;5040735;28;20033;-66
2022/07/02 04:40:12;;;;;;;8.77;1.42;;;14.20;99.70;;;;;;5050639;28;20032;-66
2022/07/02 04:42:39;;;;;;;6.53;1.33;;;14.20;99.90;;;;;;5050433;28;20060;-66
2022/07/02 04:45:07;;;;;;;4.05;1.10;;;14.20;99.90;;;;;;5044281;28;20037;-66
2022/07/02 04:47:35;;;;;;;7.93;1.38;;;14.20;99.90;;;;;;5042972;28;20039;-66
2022/07/02 04:50:02;;;;;;;7.32;1.30;;;14.20;99.90;;;;;;5048432;28;20033;-66
2022/07/02 04:52:29;;;;;;;8.00;2.33;;;14.20;99.80;;;;;;5045959;28;20402;-66
2022/07/02 04:54:56;;;;;;;9.88;2.47;;;14.20;99.80;;;;;;5041962;28;20465;-66
2022/07/02 04:57:23;;;;;;;9.43;2.38;;;14.10;99.80;;;;;;5050136;28;20025;-66
2022/07/02 04:59:51;;;;;;;11.02;1.70;;;14.10;99.60;;;;;;5036027;28;20026;-65
2022/07/02 05:02:21;;;;;;;9.50;2.10;;;14.00;99.60;;;;;;5029014;28;20043;-66
2022/07/02 05:04:49;;;;;;;12.90;1.88;;;14.00;99.60;;;;;;5039365;28;20032;-66
2022/07/02 05:07:16;;;;;;;14.55;1.98;;;13.90;99.80;;;;;;5045273;28;20453;-66
2022/07/02 05:09:43;;;;;;;18.13;1.98;;;14.00;99.90;;;;;;5046269;28;20024;-66
2022/07/02 05:12:10;;;;;;;24.75;3.15;;;13.90;99.90;;;;;;5046705;28;20029;-67
2022/07/02 05:14:38;;;;;;;23.00;7.63;;;14.00;99.90;;;;;;5046907;28;20025;-66
2022/07/02 05:17:06;;;;;;;27.00;15.00;;;14.00;99.90;;;;;;5038359;28;20041;-64
2022/07/02 05:19:33;;;;;;;32.05;18.55;;;13.90;99.90;;;;;;5039492;28;20033;-66
2022/07/02 05:22:00;;;;;;;37.17;20.10;;;13.90;99.90;;;;;;5032711;28;20063;-66
2022/07/02 05:24:28;;;;;;;25.50;13.88;;;14.00;99.90;;;;;;5042656;28;20021;-66
2022/07/02 05:26:58;;;;;;;23.48;10.68;;;13.90;99.90;;;;;;5028961;28;20605;-67
2022/07/02 05:29:25;;;;;;;17.42;6.97;;;14.00;99.90;;;;;;5039615;28;20525;-66
2022/07/02 05:31:52;;;;;;;19.30;8.55;;;14.00;99.90;;;;;;5031519;28;20030;-67
2022/07/02 05:34:20;;;;;;;26.65;11.10;;;14.00;99.90;;;;;;5031530;28;20021;-63
2022/07/02 05:36:50;;;;;;;12.20;4.93;;;14.00;99.90;;;;;;5036310;28;20108;-61
2022/07/02 05:39:17;;;;;;;30.38;12.80;;;13.90;99.90;;;;;;5030947;28;20033;-61
2022/07/02 05:41:44;;;;;;;21.90;10.85;;;14.00;99.90;;;;;;5036477;28;20025;-61
2022/07/02 05:44:11;;;;;;;36.03;19.25;;;13.90;99.90;;;;;;5040360;28;20724;-67
2022/07/02 05:46:39;;;;;;;30.95;16.50;;;13.90;99.90;;;;;;5040115;28;20436;-64
2022/07/02 05:49:06;;;;;;;16.77;9.68;;;13.90;99.90;;;;;;5029557;28;20025;-65
2022/07/02 05:51:36;;;;;;;29.02;14.38;;;13.90;99.90;;;;;;5035525;28;20025;-66
2022/07/02 05:54:03;;;;;;;25.40;10.48;;;13.90;99.90;;;;;;5043866;28;20029;-66
2022/07/02 05:56:30;;;;;;;25.30;13.00;;;13.90;99.90;;;;;;5035958;28;20029;-65
2022/07/02 05:58:57;;;;;;;20.00;5.80;;;13.80;99.90;;;;;;5048170;28;20514;-66
2022/07/02 06:01:25;;;;;;;29.63;2.90;;;13.80;99.90;;;;;;5037950;28;20029;-67
2022/07/02 06:03:52;;;;;;;11.68;2.10;;;13.80;99.90;;;;;;5030106;28;20044;-66
2022/07/02 06:09:05;;;;;;;7.85;1.30;;;13.80;99.90;;;;;;5031045;28;20036;-68
2022/07/02 06:11:35;;;;;;;14.98;1.98;;;13.70;99.90;;;;;;5031401;28;20087;-67
2022/07/02 06:14:02;;;;;;;23.88;5.88;;;13.70;99.90;;;;;;5035048;28;20058;-70
2022/07/02 06:16:29;;;;;;;16.25;6.10;;;13.70;99.90;;;;;;5041465;28;20071;-67
2022/07/02 06:18:59;;;;;;;19.25;7.00;;;13.80;99.90;;;;;;5046472;28;20033;-69
2022/07/02 06:21:27;;;;;;;15.45;3.92;;;13.80;99.90;;;;;;5028028;28;20061;-64
2022/07/02 06:23:54;;;;;;;21.65;6.72;;;13.80;99.90;;;;;;5039794;28;20017;-64
2022/07/02 06:26:24;;;;;;;19.27;12.77;;;13.70;99.90;;;;;;5033953;28;20387;-64
2022/07/02 06:28:51;;;;;;;20.77;5.72;;;13.70;99.90;;;;;;5030787;28;20033;-63
2022/07/02 06:31:18;;;;;;;12.52;2.08;;;13.70;99.90;;;;;;5034893;28;20072;-62
2022/07/02 06:33:45;;;;;;;20.08;3.65;;;13.70;99.90;;;;;;5045113;28;20136;-64
2022/07/02 06:36:14;;;;;;;18.77;2.75;;;13.70;99.90;;;;;;5038028;28;20211;-68
2022/07/02 06:38:42;;;;;;;14.35;2.85;;;13.70;99.90;;;;;;5039939;28;20128;-69
2022/07/02 06:43:54;;;;;;;17.27;2.17;;;13.70;99.90;;;;;;5036831;28;20052;-68
2022/07/02 06:46:22;;;;;;;11.38;1.90;;;13.70;99.90;;;;;;5036808;28;20029;-67
2022/07/02 06:48:49;;;;;;;7.80;1.55;;;13.70;99.90;;;;;;5032155;28;20021;-62
2022/07/02 06:51:16;;;;;;;10.13;1.67;;;13.70;99.90;;;;;;5032971;28;20032;-63
2022/07/02 06:53:43;;;;;;;15.95;2.90;;;13.60;99.90;;;;;;5037378;28;20028;-63
2022/07/02 06:56:10;;;;;;;12.57;2.28;;;13.60;99.90;;;;;;5040884;28;20170;-63
2022/07/02 06:58:38;;;;;;;15.88;2.92;;;13.60;99.90;;;;;;5041779;28;20021;-66
2022/07/02 07:01:05;;;;;;;10.75;2.15;;;13.60;99.90;;;;;;5037044;28;20037;-66
2022/07/02 07:03:32;;;;;;;12.30;2.13;;;13.60;99.90;;;;;;5034959;28;20037;-65
2022/07/02 07:05:59;;;;;;;14.27;2.13;;;13.70;99.90;;;;;;5036198;28;20375;-63
2022/07/02 07:08:26;;;;;;;12.00;1.80;;;13.80;99.90;;;;;;5029516;28;20065;-64
2022/07/02 07:10:54;;;;;;;32.05;3.22;;;13.80;99.90;;;;;;5032714;28;20025;-64
2022/07/02 07:13:21;;;;;;;21.90;2.70;;;13.90;99.90;;;;;;5034290;28;20092;-64
2022/07/02 07:15:48;;;;;;;18.83;3.58;;;13.90;99.90;;;;;;5042396;28;20021;-66
2022/07/02 07:18:15;;;;;;;20.45;2.95;;;13.90;99.90;;;;;;5037406;28;20044;-67
2022/07/02 07:20:42;;;;;;;23.05;2.78;;;14.00;99.90;;;;;;5043561;28;20036;-67
2022/07/02 07:23:10;;;;;;;14.43;1.65;;;13.90;99.90;;;;;;5036420;28;20068;-66
2022/07/02 07:25:37;;;;;;;16.77;2.00;;;13.90;99.90;;;;;;5029636;28;20082;-67
2022/07/02 07:28:04;;;;;;;11.50;1.60;;;13.80;99.90;;;;;;5043778;28;20509;-68
2022/07/02 07:30:32;;;;;;;10.38;1.45;;;13.80;99.90;;;;;;5045192;28;20108;-69
2022/07/02 07:32:59;;;;;;;18.65;1.85;;;13.70;99.90;;;;;;5034128;28;20063;-67
2022/07/02 07:35:26;;;;;;;14.68;3.90;;;13.70;99.90;;;;;;5037265;28;20025;-69
2022/07/02 07:37:59;;;;;;;12.73;2.45;;;13.70;99.90;;;;;;5046539;28;20067;-68
2022/07/02 07:40:28;;;;;;;12.35;4.88;;;13.70;99.90;;;;;;5042774;28;20047;-68
2022/07/02 07:42:55;;;;;;;26.40;4.85;;;13.60;99.90;;;;;;5039442;28;20037;-66
2022/07/02 07:45:22;;;;;;;16.02;2.17;;;13.60;99.90;;;;;;5038148;28;20551;-63
2022/07/02 07:47:50;;;;;;;9.05;1.50;;;13.70;99.90;;;;;;5045396;28;20025;-61
2022/07/02 07:50:17;;;;;;;11.10;1.77;;;13.70;99.90;;;;;;5034158;28;20556;-68
2022/07/02 07:52:44;;;;;;;19.23;1.92;;;13.70;99.90;;;;;;5047550;28;20041;-66
2022/07/02 07:55:11;;;;;;;15.93;1.58;;;13.80;99.90;;;;;;5046370;28;20116;-68
2022/07/02 07:57:39;;;;;;;15.88;2.42;;;13.80;99.90;;;;;;5048153;28;20021;-68
2022/07/02 08:00:07;;;;;;;23.73;3.00;;;13.80;99.90;;;;;;5049201;28;20470;-69
2022/07/02 08:02:34;;;;;;;11.55;2.10;;;13.80;99.90;;;;;;5048769;28;20493;-69
2022/07/02 08:05:02;;;;;;;16.58;2.45;;;13.90;99.90;;;;;;5048463;28;20033;-69
2022/07/02 08:07:34;;;;;;;12.30;1.75;;;13.90;99.90;;;;;;5046118;28;20116;-68
2022/07/02 08:10:02;;;;;;;16.40;1.40;;;13.90;99.90;;;;;;5046030;28;20029;-68
2022/07/02 08:12:29;;;;;;;9.55;1.80;;;13.80;99.90;;;;;;5047403;28;20032;-67
2022/07/02 08:14:56;;;;;;;9.13;2.15;;;13.80;99.90;;;;;;5045898;28;20028;-70
2022/07/02 08:17:23;;;;;;;12.80;2.28;;;13.80;99.90;;;;;;5038713;28;20049;-68
2022/07/02 08:19:50;;;;;;;9.95;1.52;;;13.70;99.90;;;;;;5042975;28;20424;-70
2022/07/02 08:22:19;;;;;;;13.23;1.42;;;13.70;99.90;;;;;;5035535;28;20108;-66
2022/07/02 08:24:46;;;;;;;13.50;2.40;;;13.70;99.90;;;;;;5027353;28;20029;-65
2022/07/02 08:27:14;;;;;;;12.13;2.30;;;13.80;99.90;;;;;;5034403;28;20067;-68
2022/07/02 08:29:41;;;;;;;12.43;1.75;;;13.70;99.90;;;;;;5045517;28;20478;-72
2022/07/02 08:32:08;;;;;;;17.60;1.83;;;13.80;99.90;;;;;;5065260;28;20024;-67
2022/07/02 08:34:36;;;;;;;13.85;3.13;;;13.80;99.90;;;;;;5054288;28;20027;-68
2022/07/02 08:37:03;;;;;;;14.02;2.42;;;13.80;99.90;;;;;;5046395;28;20056;-70
2022/07/02 08:39:31;;;;;;;15.93;2.55;;;13.80;99.90;;;;;;5061114;28;20032;-67
2022/07/02 08:41:59;;;;;;;9.57;2.10;;;13.80;99.90;;;;;;5052622;28;20044;-67
2022/07/02 08:44:28;;;;;;;20.08;2.40;;;13.80;99.90;;;;;;5037578;28;20016;-68
2022/07/02 08:46:55;;;;;;;10.70;1.50;;;13.80;99.90;;;;;;5055089;28;20036;-68
2022/07/02 08:49:22;;;;;;;21.05;1.75;;;13.80;99.90;;;;;;5058930;28;20036;-68
2022/07/02 08:52:07;;;;;;;8.30;1.35;;;13.80;99.90;;;;;;5048314;28;20025;-68
2022/07/02 08:54:35;;;;;;;11.98;2.00;;;13.80;99.90;;;;;;5037659;28;20016;-63
2022/07/02 08:57:04;;;;;;;14.00;2.13;;;13.80;99.90;;;;;;5049827;28;20490;-60
2022/07/02 08:59:32;;;;;;;7.43;1.67;;;13.80;99.90;;;;;;5048531;28;20569;-62
2022/07/02 09:02:01;;;;;;;11.02;1.30;;;13.80;99.90;;;;;;5037652;28;20047;-69
2022/07/02 09:04:29;;;;;;;8.40;1.60;;;13.80;99.90;;;;;;5066718;28;20056;-69
2022/07/02 09:07:00;;;;;;;6.93;1.83;;;13.80;99.90;;;;;;5050633;28;20047;-68
2022/07/02 09:09:28;;;;;;;9.57;2.10;;;13.90;99.90;;;;;;5058387;28;20036;-69
2022/07/02 09:11:56;;;;;;;13.48;3.63;;;13.90;99.90;;;;;;5053915;28;20532;-69
2022/07/02 09:14:23;;;;;;;16.92;2.00;;;13.90;99.90;;;;;;5065351;28;20150;-69
2022/07/02 09:16:51;;;;;;;11.43;1.63;;;13.90;99.90;;;;;;5049249;28;20056;-69
2022/07/02 09:19:22;;;;;;;14.57;1.63;;;13.90;99.90;;;;;;5059495;28;20021;-69
2022/07/02 09:21:51;;;;;;;11.63;1.50;;;13.90;99.90;;;;;;5053638;28;20025;-69
2022/07/02 09:24:33;;;;;;;5.15;0.80;;;13.90;99.90;;;;;;5064635;28;20029;-69
2022/07/02 09:27:06;;;;;;;8.50;1.10;;;13.90;99.90;;;;;;5046218;28;20047;-70
2022/07/02 09:29:53;;;;;;;14.75;1.80;;;13.90;99.90;;;;;;5059658;28;20020;-69
2022/07/02 09:32:21;;;;;;;10.35;2.03;;;13.90;99.90;;;;;;5043539;28;20029;-69
2022/07/02 09:34:50;;;;;;;13.55;1.83;;;13.90;99.90;;;;;;5063148;28;20033;-69
2022/07/02 09:37:20;;;;;;;16.00;2.20;;;13.90;99.90;;;;;;5057671;28;20029;-68
2022/07/02 09:39:50;;;;;;;22.30;2.47;;;13.90;99.90;;;;;;5052844;28;20059;-67
2022/07/02 09:42:28;;;;;;;16.67;2.28;;;13.90;99.90;;;;;;5048977;28;20046;-69
2022/07/02 09:44:57;;;;;;;15.07;1.88;;;13.90;99.90;;;;;;5061351;28;20390;-69
2022/07/02 09:47:48;;;;;;;27.98;2.78;;;13.80;99.90;;;;;;5059461;28;20048;-68
2022/07/02 09:50:17;;;;;;;15.13;2.17;;;13.80;99.90;;;;;;5051222;28;20029;-68
2022/07/02 09:53:02;;;;;;;24.80;2.83;;;13.80;99.90;;;;;;5039459;28;20106;-69
2022/07/02 09:55:32;;;;;;;21.58;2.75;;;13.90;99.90;;;;;;5066821;28;20033;-68
2022/07/02 09:58:01;;;;;;;17.42;2.95;;;13.90;99.90;;;;;;5052353;28;20029;-69
2022/07/02 10:00:30;;;;;;;20.40;2.80;;;13.90;99.90;;;;;;5042110;28;20032;-68
2022/07/02 10:03:00;;;;;;;11.98;2.45;;;13.90;99.90;;;;;;5059523;28;20067;-68
2022/07/02 10:05:33;;;;;;;14.13;3.17;;;13.80;99.90;;;;;;5056566;28;20469;-67
2022/07/02 10:08:03;;;;;;;23.52;3.90;;;13.80;99.90;;;;;;5043356;28;20029;-69
2022/07/02 10:10:41;;;;;;;20.70;2.83;;;13.80;99.90;;;;;;5046029;28;20515;-68
2022/07/02 10:13:11;;;;;;;21.05;3.67;;;13.80;99.90;;;;;;5058936;28;20164;-68
2022/07/02 10:15:52;;;;;;;19.42;4.72;;;13.80;99.90;;;;;;5054405;28;20551;-68
2022/07/02 10:18:20;;;;;;;24.35;4.50;;;13.80;99.90;;;;;;5063387;28;20174;-68
2022/07/02 10:20:48;;;;;;;27.50;3.55;;;13.90;99.90;;;;;;5053947;28;20029;-68
2022/07/02 10:23:19;;;;;;;22.40;5.93;;;13.80;99.90;;;;;;5055302;28;20496;-70
2022/07/02 10:25:48;;;;;;;19.73;3.83;;;13.80;99.90;;;;;;5054453;28;20041;-67
2022/07/02 10:28:16;;;;;;;15.00;3.78;;;13.80;99.90;;;;;;5033112;28;20053;-68
2022/07/02 10:30:43;;;;;;;20.90;5.32;;;13.80;99.90;;;;;;5061186;28;20340;-67
2022/07/02 10:33:16;;;;;;;21.35;5.97;;;13.80;99.90;;;;;;5047537;28;20033;-68
2022/07/02 10:35:45;;;;;;;28.05;12.50;;;13.70;99.90;;;;;;5053699;28;20153;-69
2022/07/02 10:38:12;;;;;;;43.60;18.60;;;13.80;99.90;;;;;;5046661;28;20108;-69
2022/07/02 10:40:52;;;;;;;29.63;14.10;;;13.70;99.90;;;;;;5034038;28;20025;-68
2022/07/02 10:43:20;;;;;;;20.80;6.20;;;13.70;99.90;;;;;;5030710;28;20094;-68
2022/07/02 10:45:48;;;;;;;14.50;2.50;;;13.60;99.90;;;;;;5047646;28;20028;-69
2022/07/02 10:48:16;;;;;;;11.75;2.17;;;13.60;99.90;;;;;;5033113;28;20036;-69
2022/07/02 10:50:45;;;;;;;8.88;2.10;;;13.60;99.90;;;;;;5040297;28;20109;-70
2022/07/02 10:53:20;;;;;;;9.07;1.30;;;13.50;99.90;;;;;;5049879;28;20293;-70
2022/07/02 10:56:02;;;;;;;10.02;1.20;;;13.50;99.90;;;;;;5055184;28;20132;-70
2022/07/02 10:58:31;;;;;;;5.25;1.13;;;13.40;99.90;;;;;;5057455;28;20020;-70
2022/07/02 11:01:23;;;;;;;10.20;1.33;;;13.50;99.90;;;;;;5048245;28;20033;-70
2022/07/02 11:03:56;;;;;;;8.45;2.78;;;13.50;99.90;;;;;;5032358;28;20151;-70
2022/07/02 11:06:31;;;;;;;16.40;4.72;;;13.40;99.90;;;;;;5039064;28;20017;-69
2022/07/02 11:08:59;;;;;;;26.83;12.00;;;13.40;99.90;;;;;;5062861;28;20694;-70
2022/07/02 11:11:35;;;;;;;52.58;28.73;;;13.40;99.90;;;;;;5039140;28;20020;-71
2022/07/02 11:14:15;;;;;;;53.28;31.02;;;13.50;99.90;;;;;;5025231;28;20076;-70
2022/07/02 11:16:53;;;;;;;59.22;32.75;;;13.50;99.90;;;;;;5058169;28;20151;-70
2022/07/02 11:19:27;;;;;;;54.30;25.48;;;13.50;99.90;;;;;;5037186;28;20082;-70
2022/07/02 11:22:00;;;;;;;21.30;12.93;;;13.50;99.90;;;;;;5051611;28;20039;-69
2022/07/02 11:24:30;;;;;;;25.17;11.68;;;13.50;99.90;;;;;;5047276;28;20024;-71
2022/07/02 11:27:00;;;;;;;17.85;7.03;;;13.50;99.90;;;;;;5052324;28;20068;-70
2022/07/02 11:29:28;;;;;;;14.07;3.72;;;13.60;99.90;;;;;;5051333;28;20056;-70
2022/07/02 11:31:56;;;;;;;16.48;2.72;;;13.60;99.90;;;;;;5056334;28;20108;-71
2022/07/02 11:34:25;;;;;;;17.10;2.13;;;13.70;99.90;;;;;;5035765;28;20670;-68
2022/07/02 11:36:53;;;;;;;16.25;3.15;;;13.70;99.90;;;;;;5059868;28;20025;-71
2022/07/02 11:39:23;;;;;;;10.55;2.55;;;13.70;99.90;;;;;;5049616;28;20633;-71
2022/07/02 11:41:52;;;;;;;15.45;3.13;;;13.70;99.90;;;;;;5057359;28;20029;-71
2022/07/02 11:44:30;;;;;;;23.25;3.70;;;13.80;99.90;;;;;;5043875;28;20032;-70
2022/07/02 11:46:59;;;;;;;24.20;2.88;;;13.70;99.90;;;;;;5053126;28;20130;-68
2022/07/02 11:49:30;;;;;;;20.20;3.33;;;13.70;99.90;;;;;;5051844;28;20028;-67
2022/07/02 11:51:58;;;;;;;23.73;3.55;;;13.80;99.90;;;;;;5052120;28;20037;-69
2022/07/02 11:54:26;;;;;;;20.85;5.07;;;13.80;99.90;;;;;;5059770;28;20025;-68
2022/07/02 11:56:54;;;;;;;16.55;4.00;;;13.80;99.90;;;;;;5058252;28;20033;-67
2022/07/02 11:59:24;;;;;;;21.23;4.95;;;13.80;99.90;;;;;;5040274;28;20024;-69
2022/07/02 12:01:53;;;;;;;34.78;3.00;;;13.80;99.90;;;;;;5040182;28;20056;-67
2022/07/02 12:04:22;;;;;;;21.92;2.33;;;13.80;99.90;;;;;;5028953;28;20090;-69
2022/07/02 12:06:53;;;;;;;20.20;2.92;;;13.80;99.90;;;;;;5038975;28;20036;-69
2022/07/02 12:09:25;;;;;;;30.15;3.67;;;13.80;99.90;;;;;;5038554;28;20075;-69
2022/07/02 12:11:56;;;;;;;31.85;5.38;;;13.80;99.90;;;;;;5047272;28;20120;-70
2022/07/02 12:14:30;;;;;;;20.40;3.78;;;13.70;99.90;;;;;;5039211;28;20029;-68
2022/07/02 12:17:01;;;;;;;24.48;2.70;;;13.70;99.90;;;;;;5040829;28;20079;-69
2022/07/02 12:19:35;;;;;;;34.53;3.60;;;13.80;99.90;;;;;;5036987;28;20057;-69
2022/07/02 12:22:05;;;;;;;24.90;3.65;;;13.80;99.90;;;;;;5039934;28;20068;-69
2022/07/02 12:24:38;;;;;;;29.73;4.55;;;13.80;99.90;;;;;;5043203;28;20021;-70
2022/07/02 12:27:07;;;;;;;27.65;2.55;;;13.80;99.90;;;;;;5062043;28;20021;-69
2022/07/02 12:32:32;;;;;;;23.52;3.72;;;13.80;99.90;;;;;;5050091;28;20043;-70
2022/07/02 12:35:23;;;;;;;24.48;2.75;;;13.90;99.90;;;;;;5041637;28;20030;-70
2022/07/02 12:37:59;;;;;;;26.35;3.95;;;13.90;99.90;;;;;;5063470;28;20108;-70
2022/07/02 12:40:27;;;;;;;32.33;2.42;;;14.00;99.90;;;;;;5058646;28;20074;-69
2022/07/02 12:42:59;;;;;;;34.67;3.83;;;13.90;99.90;;;;;;5067718;28;20029;-70
2022/07/02 12:45:33;;;;;;;23.20;3.55;;;14.00;99.90;;;;;;5056570;28;20473;-68
2022/07/02 12:48:07;;;;;;;;;;;14.00;99.90;;;;;;5061953;28;20024;-69
2022/07/02 12:50:41;;;;;;;29.88;3.60;;;14.00;99.90;;;;;;5055469;28;20322;-70
2022/07/02 12:53:21;;;;;;;18.92;3.10;;;14.00;99.90;;;;;;5057348;28;20033;-70
2022/07/02 12:55:55;;;;;;;22.15;2.85;;;14.00;99.90;;;;;;5051974;28;20721;-69
2022/07/02 12:58:23;;;;;;;16.35;2.67;;;14.00;99.90;;;;;;5063331;28;20024;-71